Flight Track Log - Related Links

Times and Time Zones

All times are in EDT time to prevent confusion due to time zone crossing. See the FLG3429 flight status page for this flight to view local times or setup timezone preferences in your user account.

Time Position Orientation Groundspeed Altitude Reporting Facility
EDT Latitude Longitude Course Direction KTS MPH feet Rate Location/Type
Fri 08:07:48 PM 40.6333 -73.8667 210° Southwest 181 208 2,400  Level New York TRACON
Fri 08:08:42 PM 40.6000 -73.9000 217° Southwest 221 254 4,000 2,053 Climbing New York TRACON
Fri 08:09:42 PM 40.5333 -73.9500 210° Southwest 272 313 6,300 2,484 Climbing New York TRACON
Fri 08:10:00 PM 40.2591 -74.0551 207° Southwest  Level FlightAware Approximate
Fri 08:11:00 PM 40.1619 -74.1199 207° Southwest  Level FlightAware Approximate
Fri 08:11:19 PM 40.4211 -74.0153 204° Southwest 275 316 10,500  Level New York Center
Fri 08:12:00 PM 40.0681 -74.1910 201° Southwest  Level FlightAware Approximate
Fri 08:12:18 PM 40.3344 -74.0656 204° Southwest 299 344 12,100  Level New York Center
Fri 08:13:00 PM 39.9784 -74.2704 210° Southwest  Level FlightAware Approximate
Fri 08:13:19 PM 40.2539 -74.1161 206° Southwest 341 392 14,000  Level New York Center
Fri 08:15:31 PM 40.0453 -74.2311 203° Southwest 368 423 17,800 1,772 Climbing Washington Center
Fri 08:16:32 PM 39.9650 -74.3164 219° Southwest 375 432 19,700 1,815 Climbing Washington Center
Fri 08:17:30 PM 39.8847 -74.4125 223° Southwest 386 444 21,400 1,500 Climbing Washington Center
Fri 08:18:32 PM 39.8044 -74.5139 224° Southwest 397 457 22,700 1,550 Climbing Washington Center
Fri 08:19:30 PM 39.7200 -74.6094 221° Southwest 407 468 24,500 1,361 Climbing Washington Center
Fri 08:20:31 PM 39.6353 -74.7131 223° Southwest 414 476 25,400 1,377 Climbing Washington Center
Fri 08:21:32 PM 39.5486 -74.8192 223° Southwest 419 482 27,300 1,373 Climbing Washington Center
Fri 08:22:29 PM 39.4617 -74.9194 222° Southwest 424 488 28,100 1,017 Climbing Washington Center
Fri 08:23:30 PM 39.3725 -75.0278 223° Southwest 429 494 29,300 1,024 Climbing Washington Center
Fri 08:24:32 PM 39.2728 -75.1197 216° Southwest 435 501 30,200 934 Climbing Washington Center
Fri 08:25:32 PM 39.1542 -75.1714 199° South 435 501 31,200 1,109 Climbing Washington Center
Fri 08:26:31 PM 39.0336 -75.2256 199° South 448 516 32,400 1,436 Climbing Washington Center
Fri 08:27:29 PM 38.9192 -75.2742 198° South 454 522 34,000 807 Climbing Washington Center
Fri 08:28:30 PM 38.8003 -75.3225 198° South 448 516 34,000  Level Washington Center
Fri 08:29:31 PM 38.6839 -75.3789 201° Southwest 443 510 34,000  Level Washington Center
Fri 08:30:30 PM 38.5650 -75.4192 195° South 443 510 34,000  Level Washington Center
Fri 08:31:31 PM 38.4461 -75.4672 198° South 443 510 34,000  Level Washington Center
Fri 08:32:32 PM 38.3317 -75.5256 202° Southwest 443 510 34,000  Level Washington Center
Fri 08:33:32 PM 38.2294 -75.6156 215° Southwest 443 510 34,000  Level Washington Center
Fri 08:34:31 PM 38.1333 -75.7078 217° Southwest 443 510 34,000  Level Washington Center
Fri 08:35:31 PM 38.0269 -75.8211 220° Southwest 448 516 34,000  Level Washington Center
Fri 08:36:32 PM 37.9331 -75.8944 212° Southwest 448 516 34,000  Level Washington Center
Fri 08:37:30 PM 37.8347 -75.9861 216° Southwest 453 521 34,000  Level Washington Center
Fri 08:38:30 PM 37.7278 -76.0933 218° Southwest 458 527 34,000  Level Washington Center
Fri 08:39:30 PM 37.6233 -76.1817 214° Southwest 458 527 34,000  Level Washington Center
Fri 08:40:29 PM 37.5247 -76.2753 217° Southwest 458 527 34,000  Level Washington Center
Fri 08:41:30 PM 37.4242 -76.3633 215° Southwest 452 520 34,000  Level Washington Center
Fri 08:42:31 PM 37.3233 -76.4564 216° Southwest 452 520 34,000  Level Washington Center
Fri 08:43:32 PM 37.2331 -76.5389 216° Southwest 457 526 34,000  Level Washington Center
Fri 08:44:30 PM 37.1300 -76.6314 216° Southwest 457 526 34,000  Level Washington Center
Fri 08:45:30 PM 37.0292 -76.7236 216° Southwest 457 526 34,000  Level Washington Center
Fri 08:46:31 PM 36.9281 -76.8156 216° Southwest 457 526 34,000  Level Washington Center
Fri 08:47:32 PM 36.8269 -76.9100 217° Southwest 457 526 34,000  Level Washington Center
Fri 08:48:30 PM 36.7258 -76.9992 215° Southwest 457 526 34,000  Level Washington Center
Fri 08:49:32 PM 36.6244 -77.0956 217° Southwest 457 526 34,000  Level Washington Center
Fri 08:50:30 PM 36.5231 -77.1892 217° Southwest 457 526 34,000  Level Washington Center
Fri 08:51:30 PM 36.4236 -77.2853 218° Southwest 457 526 34,000  Level Washington Center
Fri 08:52:30 PM 36.3094 -77.3936 217° Southwest 468 539 34,000  Level Washington Center
Fri 08:53:31 PM 36.2119 -77.4867 218° Southwest 468 539 34,000  Level Washington Center
Fri 08:54:32 PM 36.1125 -77.5794 217° Southwest 454 522 34,000  Level Washington Center
Fri 08:55:30 PM 36.0108 -77.6719 216° Southwest 454 522 34,000  Level Washington Center
Fri 08:56:31 PM 35.9069 -77.7589 214° Southwest 454 522 34,000  Level Washington Center
Fri 08:57:31 PM 35.8011 -77.8456 214° Southwest 459 528 34,000  Level Washington Center
Fri 08:58:32 PM 35.6931 -77.9269 211° Southwest 464 534 34,000  Level Washington Center
Fri 08:59:30 PM 35.5850 -78.0081 211° Southwest 464 534 34,000  Level Washington Center
Fri 09:00:31 PM 35.4769 -78.0942 213° Southwest 464 534 34,000  Level Washington Center
Fri 09:01:30 PM 35.3708 -78.1750 212° Southwest 464 534 34,000  Level Washington Center
Fri 09:02:30 PM 35.2606 -78.2603 212° Southwest 464 534 34,000  Level Washington Center
Fri 09:03:31 PM 35.1522 -78.3431 212° Southwest 464 534 34,000  Level Washington Center
Fri 09:04:31 PM 35.0436 -78.4283 213° Southwest 464 534 34,000  Level Washington Center
Fri 09:06:58 PM 34.7803 -78.6311 212° Southwest 452 520 34,000  Level Jacksonville Center
Fri 09:07:58 PM 34.6725 -78.7147 213° Southwest 458 527 34,000  Level Jacksonville Center
Fri 09:08:58 PM 34.5667 -78.7956 212° Southwest 463 533 34,000  Level Jacksonville Center
Fri 09:09:58 PM 34.4733 -78.8706 214° Southwest 463 533 34,000  Level Jacksonville Center
Fri 09:10:58 PM 34.3653 -78.9533 212° Southwest 458 527 34,000  Level Jacksonville Center
Fri 09:11:58 PM 34.2594 -79.0336 212° Southwest 458 527 34,000  Level Jacksonville Center
Fri 09:12:58 PM 34.1533 -79.1136 212° Southwest 458 527 34,000  Level Jacksonville Center
Fri 09:13:58 PM 34.0450 -79.1908 211° Southwest 458 527 34,000  Level Jacksonville Center
Fri 09:14:58 PM 33.9367 -79.2731 212° Southwest 464 534 34,000  Level Jacksonville Center
Fri 09:15:58 PM 33.8244 -79.3553 211° Southwest 464 534 34,000  Level Jacksonville Center
Fri 09:16:58 PM 33.7139 -79.4369 212° Southwest 449 517 34,000  Level Jacksonville Center
Fri 09:17:58 PM 33.6033 -79.5161 211° Southwest 444 511 34,000  Level Jacksonville Center
Fri 09:18:58 PM 33.4950 -79.5975 212° Southwest 449 517 34,000  Level Jacksonville Center
Fri 09:19:58 PM 33.3864 -79.6761 211° Southwest 449 517 34,000 -50 Level Jacksonville Center
Fri 09:20:58 PM 33.2800 -79.7569 212° Southwest 454 522 33,900 -1,250 Descending Jacksonville Center
Fri 09:21:58 PM 33.1711 -79.8353 211° Southwest 454 522 31,500 -1,950 Descending Jacksonville Center
Fri 09:22:58 PM 33.0644 -79.9108 211° Southwest 454 522 30,000 -750 Descending Jacksonville Center
Fri 09:23:58 PM 32.9639 -79.9808 210° Southwest 464 534 30,000  Level Jacksonville Center
Fri 09:24:58 PM 32.8511 -80.0686 213° Southwest 471 542 30,000  Level Jacksonville Center
Fri 09:25:58 PM 32.7422 -80.1536 213° Southwest 476 548 30,000  Level Jacksonville Center
Fri 09:26:58 PM 32.6314 -80.2433 214° Southwest 476 548 30,000  Level Jacksonville Center
Fri 09:27:58 PM 32.5183 -80.3303 213° Southwest 481 554 30,000 -150 Level Jacksonville Center
Fri 09:28:58 PM 32.4053 -80.4097 211° Southwest 481 554 29,700 -1,100 Descending Jacksonville Center
Fri 09:29:58 PM 32.2917 -80.4694 204° Southwest 462 532 27,800 -2,150 Descending Jacksonville Center
Fri 09:30:58 PM 32.1842 -80.5286 205° Southwest 443 510 25,400 -2,400 Descending Jacksonville Center
Fri 09:31:58 PM 32.0706 -80.5931 206° Southwest 412 474 23,000 -2,150 Descending Jacksonville Center
Fri 09:32:58 PM 31.9794 -80.6417 204° Southwest 406 467 21,100 -1,900 Descending Jacksonville Center
Fri 09:33:58 PM 31.8700 -80.7006 205° Southwest 399 459 19,200 -1,750 Descending Jacksonville Center
Fri 09:34:58 PM 31.7769 -80.7639 210° Southwest 387 445 17,600 -1,550 Descending Jacksonville Center
Fri 09:35:58 PM 31.7008 -80.8219 213° Southwest 376 433 16,100 -1,750 Descending Jacksonville Center
Fri 09:36:58 PM 31.6058 -80.8900 211° Southwest 364 419 14,100 -1,800 Descending Jacksonville Center
Fri 09:37:58 PM 31.5211 -80.9503 211° Southwest 364 419 12,500 -1,050 Descending Jacksonville Center
Fri 09:38:58 PM 31.4489 -81.0003 211° Southwest 356 410 12,000 -250 Descending Jacksonville Center
Fri 09:39:58 PM 31.3581 -81.0678 212° Southwest 356 410 12,000  Level Jacksonville Center
Fri 09:40:58 PM 31.2814 -81.1253 213° Southwest 362 417 12,000  Level Jacksonville Center
Fri 09:41:58 PM 31.1967 -81.1853 211° Southwest 362 417 12,000 -300 Level Jacksonville Center
Fri 09:42:58 PM 31.1181 -81.2425 212° Southwest 357 411 11,400 -1,075 Descending Jacksonville Center
Fri 09:43:44 PM 31.0539 -81.2872 211° Southwest 287 330 10,100 -706 Descending Jacksonville Center
Fri 09:44:57 PM 30.9711 -81.3492 213° Southwest 295 339 10,000  Descending Jacksonville Center
Fri 09:45:58 PM 30.9008 -81.3964 210° Southwest 289 333 10,100 -595 Climbing Jacksonville Center
Fri 09:46:58 PM 30.8325 -81.4458 212° Southwest 291 335 8,800 -1,350 Descending Jacksonville Center
Fri 09:47:58 PM 30.7725 -81.4903 212° Southwest 295 339 7,400 -1,636 Descending Jacksonville Center
Fri 09:48:48 PM 30.7083 -81.5372 212° Southwest 278 320 5,800 -1,364 Descending Jacksonville Center
Fri 09:49:48 PM 30.6522 -81.5742 210° Southwest 226 260 4,900 -831 Descending Jacksonville Center
Fri 09:50:58 PM 30.6047 -81.6278 224° Southwest 250 288 4,000 -415 Descending Jacksonville Center
Fri 09:51:58 PM 30.5864 -81.6861 250° West 215 247 4,000 -500 Level Jacksonville Center
Fri 09:52:58 PM 30.5642 -81.7394 244° Southwest 197 227 3,000 -960 Descending Jacksonville Center
Fri 09:54:03 PM 30.5397 -81.8097 248° West 187 215 2,000 -476 Descending Jacksonville Center
Fri 09:55:04 PM 30.5108 -81.8508 231° Southwest 190 219 2,000 -117 Level Jacksonville Center
Fri 09:55:46 PM 30.4875 -81.8294 142° Southeast 147 169 1,800 -165 Descending Jacksonville Center
Fri 09:56:53 PM 30.4725 -81.7839 111° Southeast 143 165 1,700 -422 Descending Jacksonville Center
Fri 09:57:54 PM 30.4825 -81.7403 75° East 135 155 900 -783 Descending Jacksonville Center
Fri 09:58:48 PM 30.4928 -81.7064 71° East 137 158 200 -778 Descending Jacksonville Center

Login

Don't have an account? Register now (free) for customized features, flight alerts, and more!